createdAt,value
2022-08-26T00:00:51.595Z,10.70
2022-08-26T00:01:51.571Z,10.30
2022-08-26T00:02:51.573Z,12.00
2022-08-26T00:03:51.621Z,10.00
2022-08-26T00:04:51.576Z,14.50
2022-08-26T00:05:51.581Z,9.90
2022-08-26T00:06:51.555Z,13.50
2022-08-26T00:07:51.542Z,9.80
2022-08-26T00:08:51.566Z,9.90
2022-08-26T00:09:54.371Z,11.60
2022-08-26T00:10:51.598Z,11.00
2022-08-26T00:11:51.549Z,10.30
2022-08-26T00:12:51.545Z,12.20
2022-08-26T00:13:51.565Z,14.60
2022-08-26T00:14:51.560Z,11.70
2022-08-26T00:15:51.544Z,9.50
2022-08-26T00:16:51.564Z,9.20
2022-08-26T00:17:51.575Z,18.70
2022-08-26T00:18:51.549Z,13.00
2022-08-26T00:19:51.537Z,9.70
2022-08-26T00:20:51.534Z,9.40
2022-08-26T00:21:51.564Z,12.00
2022-08-26T00:22:51.572Z,10.40
2022-08-26T00:23:51.562Z,11.10
2022-08-26T00:24:51.558Z,10.30
2022-08-26T00:25:51.558Z,11.50
2022-08-26T00:26:51.742Z,11.60
2022-08-26T00:27:51.533Z,10.30
2022-08-26T00:28:51.527Z,11.20
2022-08-26T00:29:51.571Z,10.10
2022-08-26T00:30:51.751Z,12.90
2022-08-26T00:31:51.634Z,10.30
2022-08-26T00:32:51.559Z,9.90
2022-08-26T00:33:51.546Z,10.40
2022-08-26T00:34:51.548Z,10.10
2022-08-26T00:35:51.667Z,10.30
2022-08-26T00:36:52.068Z,11.00
2022-08-26T00:37:51.539Z,9.00
2022-08-26T00:38:51.524Z,9.60
2022-08-26T00:39:51.595Z,10.70
2022-08-26T00:40:51.522Z,13.20
2022-08-26T00:41:51.539Z,11.80
2022-08-26T00:42:51.553Z,11.80
2022-08-26T00:43:51.519Z,10.40
2022-08-26T00:44:51.522Z,9.30
2022-08-26T00:45:51.596Z,9.70
2022-08-26T00:46:51.516Z,12.70
2022-08-26T00:47:51.533Z,10.30
2022-08-26T00:48:51.538Z,11.00
2022-08-26T00:49:51.511Z,13.10
2022-08-26T00:50:51.540Z,12.00
2022-08-26T00:51:51.545Z,10.30
2022-08-26T00:52:51.554Z,10.40
2022-08-26T00:53:51.539Z,9.10
2022-08-26T00:54:51.544Z,10.30
2022-08-26T00:55:51.526Z,10.10
2022-08-26T00:56:51.513Z,12.00
2022-08-26T00:57:51.549Z,11.10
2022-08-26T00:58:51.528Z,10.80
2022-08-26T00:59:51.508Z,8.30
2022-08-26T01:00:51.587Z,10.60
2022-08-26T01:01:51.572Z,10.70
2022-08-26T01:02:51.519Z,14.00
2022-08-26T01:03:51.533Z,11.80
2022-08-26T01:04:55.437Z,12.40
2022-08-26T01:05:51.519Z,10.30
2022-08-26T01:06:51.557Z,9.00
2022-08-26T01:07:51.528Z,9.90
2022-08-26T01:08:51.541Z,12.10
2022-08-26T01:09:51.518Z,11.30
2022-08-26T01:10:51.502Z,9.80
2022-08-26T01:11:51.517Z,11.50
2022-08-26T01:12:51.502Z,11.80
2022-08-26T01:13:51.517Z,10.30
2022-08-26T01:14:51.520Z,9.30
2022-08-26T01:15:51.519Z,13.60
2022-08-26T01:16:51.521Z,11.10
2022-08-26T01:17:51.509Z,12.80
2022-08-26T01:18:51.494Z,10.90
2022-08-26T01:19:51.497Z,9.60
2022-08-26T01:20:51.519Z,10.10
2022-08-26T01:21:51.521Z,9.50
2022-08-26T01:22:52.334Z,13.70
2022-08-26T01:23:51.484Z,14.00
2022-08-26T01:24:51.499Z,16.00
2022-08-26T01:25:51.507Z,17.20
2022-08-26T01:26:51.511Z,15.50
2022-08-26T01:27:51.504Z,17.30
2022-08-26T01:28:51.705Z,15.80
2022-08-26T01:29:51.525Z,22.80
2022-08-26T01:30:51.492Z,17.80
2022-08-26T01:31:51.620Z,15.30
2022-08-26T01:32:51.481Z,18.50
2022-08-26T01:33:51.504Z,18.60
2022-08-26T01:34:51.509Z,18.00
2022-08-26T01:35:51.469Z,19.40
2022-08-26T01:36:51.827Z,19.30
2022-08-26T01:37:51.485Z,17.00
2022-08-26T01:38:51.492Z,18.20
2022-08-26T01:39:51.517Z,17.10
2022-08-26T01:40:51.528Z,18.90
2022-08-26T01:41:53.557Z,19.90
2022-08-26T01:42:51.460Z,17.70
2022-08-26T01:43:51.482Z,21.50
2022-08-26T01:44:51.457Z,21.30
2022-08-26T01:45:51.483Z,18.50
2022-08-26T01:46:51.459Z,20.60
2022-08-26T01:47:56.744Z,18.30
2022-08-26T01:48:52.358Z,19.80
2022-08-26T01:49:51.502Z,24.80
2022-08-26T01:50:51.455Z,21.20
2022-08-26T01:51:51.473Z,18.50
2022-08-26T01:52:54.340Z,17.70
2022-08-26T01:53:51.484Z,24.00
2022-08-26T01:54:51.478Z,24.20
2022-08-26T01:55:51.477Z,25.80
2022-08-26T01:56:51.444Z,22.40
2022-08-26T01:57:51.471Z,25.10
2022-08-26T01:58:51.456Z,22.70
2022-08-26T01:59:51.471Z,24.20
2022-08-26T02:00:51.486Z,24.60
2022-08-26T02:01:51.467Z,29.00
2022-08-26T02:02:51.442Z,25.30
2022-08-26T02:03:51.466Z,23.80
2022-08-26T02:04:51.468Z,26.60
2022-08-26T02:05:51.671Z,24.40
2022-08-26T02:06:51.472Z,24.20
2022-08-26T02:07:51.452Z,22.60
2022-08-26T02:08:51.440Z,36.30
2022-08-26T02:09:51.454Z,23.60
2022-08-26T02:10:51.430Z,24.80
2022-08-26T02:11:51.463Z,24.30
2022-08-26T02:12:51.425Z,25.00
2022-08-26T02:13:51.447Z,24.40
2022-08-26T02:14:51.446Z,32.80
2022-08-26T02:15:51.550Z,26.90
2022-08-26T02:16:51.429Z,24.70
2022-08-26T02:17:52.714Z,27.50
2022-08-26T02:18:53.385Z,24.60
2022-08-26T02:19:51.440Z,23.70
2022-08-26T02:20:51.525Z,29.70
2022-08-26T02:21:51.957Z,22.40
2022-08-26T02:22:51.434Z,25.60
2022-08-26T02:23:51.413Z,32.20
2022-08-26T02:24:51.425Z,25.50
2022-08-26T02:25:51.414Z,28.90
2022-08-26T02:26:51.424Z,26.80
2022-08-26T02:27:51.489Z,28.60
2022-08-26T02:28:51.414Z,26.00
2022-08-26T02:29:51.432Z,27.90
2022-08-26T02:30:51.427Z,29.80
2022-08-26T02:31:51.449Z,27.50
2022-08-26T02:32:51.423Z,30.80
2022-08-26T02:33:51.410Z,30.60
2022-08-26T02:34:51.413Z,29.20
2022-08-26T02:35:51.428Z,28.20
2022-08-26T02:36:51.402Z,24.40
2022-08-26T02:37:51.417Z,25.40
2022-08-26T02:38:52.028Z,30.90
2022-08-26T02:39:51.443Z,25.70
2022-08-26T02:40:51.392Z,27.30
2022-08-26T02:41:51.410Z,33.20
2022-08-26T02:42:53.040Z,26.90
2022-08-26T02:43:51.388Z,29.00
2022-08-26T02:44:51.419Z,24.00
2022-08-26T02:45:51.409Z,26.20
2022-08-26T02:46:51.444Z,26.60
2022-08-26T02:47:51.408Z,27.10
2022-08-26T02:48:51.403Z,25.40
2022-08-26T02:49:51.384Z,29.30
2022-08-26T02:50:51.370Z,27.40
2022-08-26T02:51:51.399Z,25.20
2022-08-26T02:52:51.393Z,25.70
2022-08-26T02:53:51.397Z,27.70
2022-08-26T02:54:51.369Z,22.40
2022-08-26T02:55:51.385Z,27.10
2022-08-26T02:56:51.394Z,24.50
2022-08-26T02:57:51.385Z,30.00
2022-08-26T02:58:51.389Z,28.50
2022-08-26T02:59:51.392Z,24.70
2022-08-26T03:00:53.400Z,21.50
2022-08-26T03:01:51.437Z,24.10
2022-08-26T03:02:51.357Z,27.20
2022-08-26T03:03:51.359Z,27.00
2022-08-26T03:04:57.485Z,25.10
2022-08-26T03:05:51.390Z,25.80
2022-08-26T03:06:53.091Z,22.10
2022-08-26T03:07:51.377Z,31.40
2022-08-26T03:08:51.376Z,26.70
2022-08-26T03:09:51.363Z,27.40
2022-08-26T03:10:51.343Z,24.90
2022-08-26T03:11:51.360Z,21.70
2022-08-26T03:12:52.166Z,27.60
2022-08-26T03:13:51.366Z,25.20
2022-08-26T03:14:51.353Z,26.00
2022-08-26T03:15:51.400Z,28.20
2022-08-26T03:16:51.360Z,25.10
2022-08-26T03:17:51.346Z,22.60
2022-08-26T03:18:52.449Z,22.10
2022-08-26T03:19:57.084Z,24.60
2022-08-26T03:20:51.347Z,24.70
2022-08-26T03:21:51.371Z,25.40
2022-08-26T03:22:51.328Z,23.80
2022-08-26T03:23:51.354Z,21.70
2022-08-26T03:24:51.335Z,24.10
2022-08-26T03:25:51.337Z,23.40
2022-08-26T03:26:52.730Z,23.20
2022-08-26T03:27:51.324Z,22.30
2022-08-26T03:28:51.346Z,28.20
2022-08-26T03:29:51.350Z,29.00
2022-08-26T03:30:51.335Z,25.30
2022-08-26T03:31:51.395Z,25.70
2022-08-26T03:32:51.356Z,27.60
2022-08-26T03:33:51.343Z,25.00
2022-08-26T03:34:51.334Z,22.80
2022-08-26T03:35:51.344Z,23.10
2022-08-26T03:36:51.344Z,25.60
2022-08-26T03:37:51.321Z,23.20
2022-08-26T03:38:51.335Z,23.90
2022-08-26T03:39:51.349Z,27.50
2022-08-26T03:40:51.318Z,25.10
2022-08-26T03:41:51.311Z,28.80
2022-08-26T03:42:51.310Z,26.30
2022-08-26T03:43:51.330Z,25.80
2022-08-26T03:44:51.319Z,25.40
2022-08-26T03:45:51.364Z,28.70
2022-08-26T03:46:51.393Z,28.80
2022-08-26T03:47:51.328Z,32.40
2022-08-26T03:48:51.325Z,27.50
2022-08-26T03:49:51.938Z,30.80
2022-08-26T03:50:51.471Z,21.60
2022-08-26T03:51:51.339Z,27.50
2022-08-26T03:52:51.317Z,23.40
2022-08-26T03:53:51.284Z,23.30
2022-08-26T03:54:51.298Z,26.30
2022-08-26T03:55:51.926Z,29.00
2022-08-26T03:56:51.309Z,29.90
2022-08-26T03:57:51.280Z,28.60
2022-08-26T03:58:51.289Z,24.60
2022-08-26T03:59:51.290Z,24.90
2022-08-26T04:00:51.380Z,22.30
2022-08-26T04:01:51.308Z,27.70
2022-08-26T04:02:53.233Z,25.10
2022-08-26T04:03:51.305Z,29.40
2022-08-26T04:04:51.284Z,31.60
2022-08-26T04:05:51.280Z,25.70
2022-08-26T04:06:51.266Z,27.20
2022-08-26T04:07:51.299Z,25.50
2022-08-26T04:08:51.285Z,25.60
2022-08-26T04:09:51.253Z,28.10
2022-08-26T04:10:51.250Z,22.90
2022-08-26T04:11:51.251Z,28.00
2022-08-26T04:12:51.290Z,25.70
2022-08-26T04:13:51.286Z,23.90
2022-08-26T04:14:51.305Z,24.90
2022-08-26T04:15:51.277Z,28.70
2022-08-26T04:16:51.251Z,25.00
2022-08-26T04:17:51.273Z,27.00
2022-08-26T04:18:51.250Z,31.60
2022-08-26T04:19:51.268Z,32.50
2022-08-26T04:20:51.268Z,29.80
2022-08-26T04:21:51.273Z,25.90
2022-08-26T04:22:51.265Z,25.40
2022-08-26T04:23:51.264Z,30.10
2022-08-26T04:24:51.234Z,26.90
2022-08-26T04:25:51.309Z,25.70
2022-08-26T04:26:51.260Z,24.40
2022-08-26T04:27:51.234Z,25.30
2022-08-26T04:28:51.249Z,27.40
2022-08-26T04:29:54.778Z,24.60
2022-08-26T04:30:51.464Z,23.40
2022-08-26T04:31:51.699Z,28.80
2022-08-26T04:32:51.239Z,27.90
2022-08-26T04:33:51.246Z,23.40
2022-08-26T04:34:51.216Z,26.50
2022-08-26T04:35:51.236Z,28.90
2022-08-26T04:36:51.247Z,29.40
2022-08-26T04:37:51.242Z,24.70
2022-08-26T04:38:51.509Z,32.50
2022-08-26T04:39:51.268Z,26.60
2022-08-26T04:40:51.224Z,28.80
2022-08-26T04:41:51.204Z,25.60
2022-08-26T04:42:51.230Z,29.00
2022-08-26T04:43:51.262Z,32.00
2022-08-26T04:44:51.255Z,28.80
2022-08-26T04:45:51.221Z,36.90
2022-08-26T04:46:51.211Z,26.20
2022-08-26T04:47:51.233Z,25.50
2022-08-26T04:48:51.216Z,29.60
2022-08-26T04:49:51.216Z,28.80
2022-08-26T04:50:51.198Z,32.40
2022-08-26T04:51:51.221Z,29.40
2022-08-26T04:52:51.192Z,34.20
2022-08-26T04:53:51.189Z,27.80
2022-08-26T04:54:51.225Z,27.00
2022-08-26T04:55:52.440Z,31.20
2022-08-26T04:56:51.201Z,26.40
2022-08-26T04:57:51.179Z,32.90
2022-08-26T04:58:51.199Z,32.00
2022-08-26T04:59:51.181Z,26.20
2022-08-26T05:00:51.190Z,23.20
2022-08-26T05:01:51.198Z,28.40
2022-08-26T05:02:51.467Z,29.00
2022-08-26T05:03:51.233Z,26.30
2022-08-26T05:04:51.873Z,25.50
2022-08-26T05:05:51.184Z,24.50
2022-08-26T05:06:52.141Z,25.40
2022-08-26T05:07:51.169Z,26.60
2022-08-26T05:08:51.169Z,31.20
2022-08-26T05:09:51.189Z,32.80
2022-08-26T05:10:51.160Z,28.50
2022-08-26T05:11:52.039Z,27.80
2022-08-26T05:12:51.155Z,28.00
2022-08-26T05:13:52.139Z,24.00
2022-08-26T05:14:51.156Z,29.70
2022-08-26T05:15:51.237Z,31.20
2022-08-26T05:16:51.172Z,29.50
2022-08-26T05:17:51.181Z,29.20
2022-08-26T05:18:51.167Z,25.10
2022-08-26T05:19:51.182Z,26.10
2022-08-26T05:20:51.159Z,24.30
2022-08-26T05:21:51.149Z,32.50
2022-08-26T05:22:51.139Z,28.10
2022-08-26T05:23:51.166Z,34.40
2022-08-26T05:24:51.171Z,29.30
2022-08-26T05:25:53.615Z,31.50
2022-08-26T05:26:51.136Z,25.40
2022-08-26T05:27:51.131Z,27.80
2022-08-26T05:28:51.131Z,29.30
2022-08-26T05:29:54.607Z,34.70
2022-08-26T05:30:51.227Z,31.10
2022-08-26T05:31:51.160Z,28.20
2022-08-26T05:32:54.837Z,29.80
2022-08-26T05:33:51.157Z,29.40
2022-08-26T05:34:51.149Z,34.50
2022-08-26T05:35:51.149Z,37.50
2022-08-26T05:36:51.166Z,31.00
2022-08-26T05:37:51.133Z,35.40
2022-08-26T05:38:51.127Z,30.00
2022-08-26T05:39:51.541Z,29.60
2022-08-26T05:40:52.925Z,31.30
2022-08-26T05:41:51.148Z,29.80
2022-08-26T05:42:51.158Z,29.70
2022-08-26T05:43:51.107Z,33.80
2022-08-26T05:44:55.695Z,29.50
2022-08-26T05:45:51.137Z,28.10
2022-08-26T05:46:51.238Z,32.40
2022-08-26T05:47:51.137Z,24.50
2022-08-26T05:48:51.098Z,24.80
2022-08-26T05:49:51.617Z,31.30
2022-08-26T05:50:51.105Z,33.50
2022-08-26T05:51:51.096Z,31.80
2022-08-26T05:52:51.130Z,30.30
2022-08-26T05:53:54.953Z,32.50
2022-08-26T05:54:51.093Z,29.00
2022-08-26T05:55:51.127Z,30.40
2022-08-26T05:56:51.114Z,28.80
2022-08-26T05:57:51.119Z,31.40
2022-08-26T05:58:51.098Z,29.40
2022-08-26T05:59:51.115Z,26.00
2022-08-26T06:00:51.088Z,25.00
2022-08-26T06:01:51.184Z,33.10
2022-08-26T06:02:51.140Z,29.00
2022-08-26T06:03:51.084Z,24.20
2022-08-26T06:04:51.081Z,27.90
2022-08-26T06:05:51.115Z,25.80
2022-08-26T06:06:51.109Z,23.70
2022-08-26T06:07:51.102Z,26.40
2022-08-26T06:08:51.085Z,25.90
2022-08-26T06:09:51.100Z,22.70
2022-08-26T06:10:51.112Z,28.70
2022-08-26T06:11:51.067Z,26.30
2022-08-26T06:12:51.088Z,22.70
2022-08-26T06:13:51.108Z,27.30
2022-08-26T06:14:51.108Z,30.50
2022-08-26T06:15:51.125Z,28.10
2022-08-26T06:16:51.064Z,25.40
2022-08-26T06:17:51.063Z,21.00
2022-08-26T06:18:51.056Z,30.20
2022-08-26T06:19:51.057Z,30.30
2022-08-26T06:20:57.803Z,36.20
2022-08-26T06:21:54.075Z,28.40
2022-08-26T06:22:51.087Z,19.10
2022-08-26T06:23:51.058Z,23.50
2022-08-26T06:24:51.056Z,23.50
2022-08-26T06:25:51.090Z,33.30
2022-08-26T06:26:51.049Z,25.70
2022-08-26T06:27:51.070Z,29.90
2022-08-26T06:28:51.041Z,23.00
2022-08-26T06:29:51.052Z,20.40
2022-08-26T06:30:51.112Z,23.10
2022-08-26T06:31:51.036Z,22.30
2022-08-26T06:32:51.060Z,36.00
2022-08-26T06:33:51.064Z,31.50
2022-08-26T06:34:51.039Z,23.50
2022-08-26T06:35:51.034Z,23.90
2022-08-26T06:36:53.135Z,21.40
2022-08-26T06:37:51.046Z,26.70
2022-08-26T06:38:51.048Z,21.20
2022-08-26T06:39:51.273Z,20.70
2022-08-26T06:40:51.041Z,32.30
2022-08-26T06:41:51.022Z,27.60
2022-08-26T06:42:51.062Z,20.70
2022-08-26T06:43:51.019Z,21.60
2022-08-26T06:44:51.030Z,24.10
2022-08-26T06:45:51.024Z,23.90
2022-08-26T06:46:51.346Z,22.70
2022-08-26T06:47:51.019Z,26.40
2022-08-26T06:48:51.041Z,20.40
2022-08-26T06:49:51.060Z,22.60
2022-08-26T06:50:51.037Z,25.30
2022-08-26T06:51:51.032Z,22.40
2022-08-26T06:52:51.038Z,19.20
2022-08-26T06:53:51.024Z,21.60
2022-08-26T06:54:51.093Z,25.20
2022-08-26T06:55:51.732Z,19.40
2022-08-26T06:56:51.030Z,21.70
2022-08-26T06:57:51.040Z,27.10
2022-08-26T06:58:51.012Z,26.90
2022-08-26T06:59:51.264Z,25.50
2022-08-26T07:00:51.009Z,22.70
2022-08-26T07:01:51.048Z,24.50
2022-08-26T07:02:51.064Z,25.80
2022-08-26T07:03:51.001Z,30.00
2022-08-26T07:04:51.322Z,21.60
2022-08-26T07:05:51.000Z,36.10
2022-08-26T07:06:52.879Z,22.80
2022-08-26T07:07:50.995Z,23.40
2022-08-26T07:08:51.030Z,19.80
2022-08-26T07:09:52.568Z,23.50
2022-08-26T07:10:51.005Z,22.20
2022-08-26T07:11:51.013Z,21.20
2022-08-26T07:12:51.008Z,27.90
2022-08-26T07:13:51.016Z,22.70
2022-08-26T07:14:50.988Z,21.90
2022-08-26T07:15:51.041Z,26.90
2022-08-26T07:16:51.021Z,22.70
2022-08-26T07:17:51.014Z,24.10
2022-08-26T07:18:51.017Z,23.30
2022-08-26T07:19:50.977Z,22.00
2022-08-26T07:20:51.003Z,21.10
2022-08-26T07:21:50.979Z,20.60
2022-08-26T07:22:51.007Z,26.60
2022-08-26T07:23:50.998Z,21.00
2022-08-26T07:24:50.974Z,26.50
2022-08-26T07:25:50.984Z,26.40
2022-08-26T07:26:50.991Z,30.00
2022-08-26T07:27:54.083Z,26.20
2022-08-26T07:28:51.012Z,24.20
2022-08-26T07:29:50.966Z,25.40
2022-08-26T07:30:51.034Z,23.90
2022-08-26T07:31:50.968Z,18.90
2022-08-26T07:32:50.966Z,28.50
2022-08-26T07:33:50.970Z,23.40
2022-08-26T07:34:50.990Z,21.90
2022-08-26T07:35:50.970Z,22.30
2022-08-26T07:36:51.001Z,20.60
2022-08-26T07:37:53.890Z,24.30
2022-08-26T07:38:50.974Z,28.70
2022-08-26T07:39:51.037Z,21.10
2022-08-26T07:40:50.981Z,24.30
2022-08-26T07:41:50.988Z,25.60
2022-08-26T07:42:50.986Z,24.30
2022-08-26T07:43:50.971Z,20.30
2022-08-26T07:44:50.988Z,25.00
2022-08-26T07:45:50.992Z,23.50
2022-08-26T07:46:53.083Z,24.00
2022-08-26T07:47:50.982Z,28.60
2022-08-26T07:48:50.992Z,25.60
2022-08-26T07:49:52.709Z,25.40
2022-08-26T07:50:50.972Z,25.80
2022-08-26T07:51:50.966Z,22.70
2022-08-26T07:52:50.952Z,23.20
2022-08-26T07:53:52.550Z,25.60
2022-08-26T07:54:50.952Z,21.30
2022-08-26T07:55:50.978Z,25.80
2022-08-26T07:56:50.969Z,22.90
2022-08-26T07:57:50.969Z,23.10
2022-08-26T07:58:51.563Z,27.80
2022-08-26T07:59:50.944Z,25.20
2022-08-26T08:00:50.941Z,26.70
2022-08-26T08:01:51.051Z,24.00
2022-08-26T08:02:50.939Z,26.30
2022-08-26T08:03:50.944Z,33.50
2022-08-26T08:04:50.995Z,33.00
2022-08-26T08:05:50.956Z,24.20
2022-08-26T08:06:50.971Z,25.90
2022-08-26T08:07:53.491Z,26.30
2022-08-26T08:08:51.714Z,30.60
2022-08-26T08:09:50.974Z,30.10
2022-08-26T08:10:50.959Z,32.50
2022-08-26T08:11:51.375Z,28.60
2022-08-26T08:12:50.952Z,29.90
2022-08-26T08:13:56.491Z,28.20
2022-08-26T08:14:50.958Z,33.80
2022-08-26T08:15:50.977Z,41.40
2022-08-26T08:16:51.275Z,35.90
2022-08-26T08:17:51.681Z,26.30
2022-08-26T08:18:50.983Z,28.40
2022-08-26T08:19:50.946Z,39.90
2022-08-26T08:20:59.111Z,35.20
2022-08-26T08:21:50.937Z,32.40
2022-08-26T08:22:50.944Z,35.50
2022-08-26T08:23:50.950Z,37.00
2022-08-26T08:24:52.898Z,36.80
2022-08-26T08:25:50.924Z,34.40
2022-08-26T08:26:50.926Z,31.10
2022-08-26T08:27:50.966Z,31.60
2022-08-26T08:28:50.947Z,30.30
2022-08-26T08:29:50.912Z,32.70
2022-08-26T08:30:50.964Z,35.40
2022-08-26T08:31:58.735Z,33.10
2022-08-26T08:32:50.959Z,27.60
2022-08-26T08:33:50.943Z,31.50
2022-08-26T08:34:50.933Z,31.10
2022-08-26T08:35:50.929Z,30.40
2022-08-26T08:36:53.347Z,29.90
2022-08-26T08:37:50.928Z,27.00
2022-08-26T08:38:50.926Z,33.90
2022-08-26T08:39:50.951Z,28.10
2022-08-26T08:40:50.929Z,33.40
2022-08-26T08:41:50.931Z,26.60
2022-08-26T08:43:50.902Z,24.70
2022-08-26T08:44:52.109Z,25.90
2022-08-26T08:45:50.986Z,26.50
2022-08-26T08:46:50.928Z,30.50
2022-08-26T08:47:50.910Z,31.80
2022-08-26T08:48:50.929Z,27.10
2022-08-26T08:49:50.909Z,25.40
2022-08-26T08:50:50.897Z,29.20
2022-08-26T08:51:50.893Z,26.20
2022-08-26T08:52:50.899Z,29.50
2022-08-26T08:53:50.924Z,31.20
2022-08-26T08:54:50.897Z,31.60
2022-08-26T08:55:50.911Z,30.40
2022-08-26T08:56:50.924Z,27.50
2022-08-26T08:57:53.817Z,34.90
2022-08-26T08:58:50.896Z,28.90
2022-08-26T08:59:50.893Z,37.20
2022-08-26T09:00:51.061Z,33.40
2022-08-26T09:01:52.559Z,29.30
2022-08-26T09:02:50.932Z,29.70
2022-08-26T09:03:50.888Z,29.00
2022-08-26T09:04:50.910Z,24.50
2022-08-26T09:05:50.884Z,24.80
2022-08-26T09:06:50.926Z,27.00
2022-08-26T09:07:50.945Z,25.30
2022-08-26T09:08:50.886Z,28.70
2022-08-26T09:09:50.902Z,20.10
2022-08-26T09:10:50.923Z,28.60
2022-08-26T09:11:50.897Z,23.70
2022-08-26T09:12:50.883Z,24.70
2022-08-26T09:13:50.891Z,27.50
2022-08-26T09:14:51.049Z,31.00
2022-08-26T09:15:50.879Z,28.70
2022-08-26T09:16:50.966Z,27.30
2022-08-26T09:17:50.908Z,29.10
2022-08-26T09:18:50.901Z,24.30
2022-08-26T09:19:50.894Z,22.20
2022-08-26T09:20:50.920Z,23.70
2022-08-26T09:21:53.461Z,26.80
2022-08-26T09:22:50.907Z,22.50
2022-08-26T09:23:50.871Z,25.10
2022-08-26T09:24:50.900Z,25.30
2022-08-26T09:25:50.923Z,23.80
2022-08-26T09:26:50.897Z,22.60
2022-08-26T09:27:50.901Z,24.40
2022-08-26T09:28:50.901Z,20.40
2022-08-26T09:29:50.918Z,24.00
2022-08-26T09:30:50.914Z,18.30
2022-08-26T09:31:50.893Z,19.60
2022-08-26T09:32:56.007Z,21.40
2022-08-26T09:33:50.894Z,17.40
2022-08-26T09:34:50.887Z,18.50
2022-08-26T09:35:50.874Z,19.70
2022-08-26T09:36:50.887Z,16.40
2022-08-26T09:38:50.901Z,19.80
2022-08-26T09:39:50.914Z,21.70
2022-08-26T09:40:50.869Z,17.90
2022-08-26T09:41:50.898Z,22.90
2022-08-26T09:42:50.893Z,20.30
2022-08-26T09:43:50.868Z,23.60
2022-08-26T09:44:50.873Z,21.60
2022-08-26T09:45:52.151Z,24.40
2022-08-26T09:46:50.873Z,24.10
2022-08-26T09:47:50.868Z,22.90
2022-08-26T09:48:51.788Z,24.00
2022-08-26T09:49:50.864Z,22.30
2022-08-26T09:50:50.871Z,24.60
2022-08-26T09:51:50.863Z,32.20
2022-08-26T09:52:50.901Z,20.30
2022-08-26T09:53:50.883Z,24.60
2022-08-26T09:54:50.900Z,21.40
2022-08-26T09:55:50.889Z,20.50
2022-08-26T09:56:50.863Z,28.00
2022-08-26T09:57:51.114Z,31.40
2022-08-26T09:58:50.895Z,20.50
2022-08-26T09:59:50.897Z,20.90
2022-08-26T10:00:50.931Z,24.00
2022-08-26T10:01:50.997Z,27.40
2022-08-26T10:02:51.861Z,22.40
2022-08-26T10:03:50.936Z,30.20
2022-08-26T10:04:50.882Z,27.30
2022-08-26T10:05:50.880Z,22.60
2022-08-26T10:06:50.879Z,26.50
2022-08-26T10:07:50.899Z,25.60
2022-08-26T10:08:50.866Z,22.00
2022-08-26T10:09:51.686Z,26.20
2022-08-26T10:10:53.054Z,27.90
2022-08-26T10:11:50.877Z,29.90
2022-08-26T10:12:50.863Z,32.80
2022-08-26T10:13:50.878Z,25.00
2022-08-26T10:14:50.861Z,29.50
2022-08-26T10:15:51.229Z,28.60
2022-08-26T10:16:50.923Z,27.40
2022-08-26T10:17:50.902Z,30.20
2022-08-26T10:18:50.896Z,32.40
2022-08-26T10:19:56.460Z,29.10
2022-08-26T10:20:50.854Z,29.20
2022-08-26T10:21:52.166Z,28.80
2022-08-26T10:22:50.882Z,25.80
2022-08-26T10:23:50.885Z,28.00
2022-08-26T10:24:54.497Z,30.00
2022-08-26T10:25:50.879Z,28.80
2022-08-26T10:26:50.886Z,27.80
2022-08-26T10:27:53.585Z,27.30
2022-08-26T10:28:50.848Z,29.80
2022-08-26T10:29:50.861Z,24.50
2022-08-26T10:30:50.877Z,21.30
2022-08-26T10:31:51.412Z,31.80
2022-08-26T10:32:50.881Z,23.00
2022-08-26T10:33:51.833Z,24.80
2022-08-26T10:34:50.895Z,23.40
2022-08-26T10:35:50.862Z,25.70
2022-08-26T10:37:50.842Z,26.90
2022-08-26T10:38:50.875Z,25.90
2022-08-26T10:39:55.240Z,26.00
2022-08-26T10:40:50.918Z,27.50
2022-08-26T10:41:50.866Z,25.60
2022-08-26T10:42:50.848Z,29.50
2022-08-26T10:43:50.873Z,29.50
2022-08-26T10:44:50.867Z,24.00
2022-08-26T10:45:50.958Z,25.90
2022-08-26T10:46:50.850Z,29.80
2022-08-26T10:47:50.867Z,25.10
2022-08-26T10:48:52.122Z,29.50
2022-08-26T10:49:50.848Z,27.90
2022-08-26T10:50:50.853Z,26.50
2022-08-26T10:51:50.865Z,24.30
2022-08-26T10:52:50.857Z,28.40
2022-08-26T10:53:51.399Z,25.40
2022-08-26T10:54:50.937Z,27.90
2022-08-26T10:55:50.866Z,23.70
2022-08-26T10:56:50.863Z,24.50
2022-08-26T10:57:50.843Z,21.50
2022-08-26T10:58:50.864Z,23.80
2022-08-26T10:59:50.869Z,24.30
2022-08-26T11:00:50.907Z,23.10
2022-08-26T11:01:52.445Z,23.40
2022-08-26T11:02:50.834Z,20.80
2022-08-26T11:03:50.928Z,28.20
2022-08-26T11:04:50.891Z,20.60
2022-08-26T11:05:50.856Z,21.50
2022-08-26T11:06:50.834Z,19.60
2022-08-26T11:07:50.878Z,18.50
2022-08-26T11:08:50.855Z,19.20
2022-08-26T11:09:50.865Z,28.30
2022-08-26T11:10:50.853Z,17.30
2022-08-26T11:11:50.867Z,15.60
2022-08-26T11:12:50.845Z,15.50
2022-08-26T11:13:50.850Z,20.80
2022-08-26T11:14:58.600Z,17.80
2022-08-26T11:15:50.895Z,17.70
2022-08-26T11:16:50.883Z,19.80
2022-08-26T11:17:50.863Z,20.00
2022-08-26T11:18:51.418Z,21.80
2022-08-26T11:20:01.232Z,20.20
2022-08-26T11:20:50.868Z,19.20
2022-08-26T11:21:50.985Z,21.50
2022-08-26T11:22:50.837Z,17.60
2022-08-26T11:23:52.936Z,17.20
2022-08-26T11:24:50.841Z,18.30
2022-08-26T11:25:50.849Z,15.80
2022-08-26T11:26:56.315Z,18.40
2022-08-26T11:27:50.855Z,15.60
2022-08-26T11:28:50.846Z,23.30
2022-08-26T11:29:50.831Z,17.50
2022-08-26T11:30:56.983Z,19.10
2022-08-26T11:31:50.876Z,23.30
2022-08-26T11:32:50.844Z,19.20
2022-08-26T11:33:51.153Z,21.70
2022-08-26T11:34:50.826Z,21.80
2022-08-26T11:35:50.822Z,22.90
2022-08-26T11:36:50.842Z,23.40
2022-08-26T11:37:50.840Z,25.70
2022-08-26T11:38:50.816Z,24.90
2022-08-26T11:39:54.663Z,27.40
2022-08-26T11:40:50.845Z,22.60
2022-08-26T11:41:52.915Z,21.80
2022-08-26T11:43:11.875Z,25.80
2022-08-26T11:43:50.843Z,20.50
2022-08-26T11:44:50.857Z,20.60
2022-08-26T11:45:50.857Z,19.10
2022-08-26T11:46:50.813Z,24.20
2022-08-26T11:47:50.813Z,19.50
2022-08-26T11:48:50.820Z,22.50
2022-08-26T11:49:50.837Z,21.70
2022-08-26T11:50:50.838Z,21.90
2022-08-26T11:51:50.821Z,16.50
2022-08-26T11:52:50.840Z,21.00
2022-08-26T11:53:50.838Z,18.60
2022-08-26T11:54:50.811Z,24.50
2022-08-26T11:55:50.812Z,23.20
2022-08-26T11:56:50.837Z,20.30
2022-08-26T11:57:50.854Z,19.00
2022-08-26T11:58:50.846Z,18.20
2022-08-26T12:01:24.979Z,16.40
2022-08-26T12:02:24.970Z,20.70
2022-08-26T12:04:19.273Z,17.10
2022-08-26T12:05:19.117Z,22.30
2022-08-26T12:07:13.266Z,16.20
2022-08-26T12:08:13.253Z,19.80
2022-08-26T12:10:07.388Z,16.20
2022-08-26T12:11:07.378Z,16.50
2022-08-26T12:13:01.717Z,30.10
2022-08-26T12:14:01.704Z,26.50
2022-08-26T12:15:56.141Z,15.60
2022-08-26T12:16:56.057Z,15.40
2022-08-26T12:18:49.802Z,16.90
2022-08-26T12:19:49.838Z,16.30
2022-08-26T12:21:43.948Z,17.40
2022-08-26T12:22:47.944Z,17.60
2022-08-26T12:24:38.441Z,15.20
2022-08-26T12:25:38.439Z,13.60
2022-08-26T12:27:32.821Z,14.60
2022-08-26T12:28:32.804Z,15.20
2022-08-26T12:30:27.059Z,14.30
2022-08-26T12:31:27.036Z,12.40
2022-08-26T12:33:22.657Z,19.60
2022-08-26T12:34:20.946Z,14.10
2022-08-26T12:36:15.093Z,13.00
2022-08-26T12:37:15.087Z,12.00
2022-08-26T12:39:09.239Z,11.90
2022-08-26T12:40:09.281Z,13.50
2022-08-26T12:42:04.578Z,13.70
2022-08-26T12:43:04.553Z,13.70
2022-08-26T12:44:58.726Z,13.90
2022-08-26T12:45:58.775Z,12.60
2022-08-26T12:47:52.888Z,17.20
2022-08-26T12:48:52.884Z,15.10
2022-08-26T12:50:47.043Z,17.00
2022-08-26T12:51:47.036Z,12.70
2022-08-26T12:53:41.084Z,11.90
2022-08-26T12:54:41.081Z,10.90
2022-08-26T12:56:37.141Z,11.80
2022-08-26T12:57:36.830Z,12.80
2022-08-26T12:59:31.071Z,10.20
2022-08-26T13:00:31.063Z,17.00
2022-08-26T13:02:25.867Z,9.90
2022-08-26T13:03:25.851Z,14.40
2022-08-26T13:05:19.957Z,9.70
2022-08-26T13:06:19.943Z,10.00
2022-08-26T13:08:14.107Z,9.70
2022-08-26T13:09:14.099Z,11.40
2022-08-26T13:11:07.873Z,10.50
2022-08-26T13:12:07.852Z,9.70
2022-08-26T13:14:02.087Z,14.40
2022-08-26T13:15:02.088Z,10.80
2022-08-26T13:16:55.986Z,12.40
2022-08-26T13:17:55.973Z,10.80
2022-08-26T13:19:50.323Z,9.60
2022-08-26T13:20:50.287Z,10.80
2022-08-26T13:22:44.427Z,10.40
2022-08-26T13:23:44.438Z,9.60